Time;durP1;ratioP1;P1;durP2;ratioP2;P2;SDS_P1;SDS_P2;PMS_P1;PMS_P2;Temp;Humidity;BMP_temperature;BMP_pressure;BME280_temperature;BME280_humidity;BME280_pressure;Samples;Min_cycle;Max_cycle;Signal;HPM_P1;HPM_P2
2022/10/26 00:00:47;;;;;;;8.93;3.95;;;11.10;99.90;;;;;;4955811;29;20043;-76
2022/10/26 00:03:14;;;;;;;8.82;4.43;;;11.10;99.90;;;;;;4956083;29;20031;-77
2022/10/26 00:05:41;;;;;;;9.70;4.78;;;11.20;99.90;;;;;;4956294;29;20035;-76
2022/10/26 00:08:07;;;;;;;10.73;4.40;;;11.20;99.90;;;;;;4953240;29;20043;-76
2022/10/26 00:10:38;;;;;;;8.30;4.15;;;11.20;99.90;;;;;;4954718;29;20043;-76
2022/10/26 00:13:05;;;;;;;7.32;4.32;;;11.20;99.90;;;;;;4956156;29;20035;-76
2022/10/26 00:15:31;;;;;;;8.45;4.05;;;11.20;99.90;;;;;;4955516;29;20051;-76
2022/10/26 00:17:57;;;;;;;11.70;5.20;;;11.20;99.90;;;;;;4954474;29;20400;-76
2022/10/26 00:20:23;;;;;;;12.60;7.25;;;11.20;99.90;;;;;;4955283;29;20038;-76
2022/10/26 00:22:49;;;;;;;8.88;4.30;;;11.20;99.90;;;;;;4955676;29;20062;-76
2022/10/26 00:25:16;;;;;;;9.15;3.80;;;11.20;99.90;;;;;;4952981;29;20464;-76
2022/10/26 00:27:42;;;;;;;8.43;3.53;;;11.20;99.90;;;;;;4953891;29;20035;-76
2022/10/26 00:30:08;;;;;;;6.05;3.13;;;11.20;99.90;;;;;;4955562;29;20039;-76
2022/10/26 00:32:35;;;;;;;6.22;3.20;;;11.20;99.90;;;;;;4953386;29;20066;-76
2022/10/26 00:35:01;;;;;;;7.80;2.92;;;11.30;99.90;;;;;;4955699;29;20035;-76
2022/10/26 00:37:27;;;;;;;6.43;3.30;;;11.30;99.90;;;;;;4953252;29;20046;-76
2022/10/26 00:39:53;;;;;;;8.77;5.40;;;11.30;99.90;;;;;;4955534;29;20465;-76
2022/10/26 00:42:21;;;;;;;8.82;3.67;;;11.30;99.90;;;;;;4952807;29;20495;-76
2022/10/26 00:44:47;;;;;;;6.85;3.92;;;11.30;99.90;;;;;;4954297;28;20030;-76
2022/10/26 00:47:37;;;;;;;10.20;4.28;;;11.30;99.90;;;;;;4953827;29;20039;-76
2022/10/26 00:50:13;;;;;;;11.98;4.45;;;11.30;99.90;;;;;;4954708;29;20528;-76
2022/10/26 00:52:40;;;;;;;9.52;3.78;;;11.30;99.90;;;;;;4954486;29;20373;-76
2022/10/26 00:55:07;;;;;;;8.70;4.35;;;11.30;99.90;;;;;;4954852;29;20027;-77
2022/10/26 00:57:35;;;;;;;12.07;4.10;;;11.20;99.90;;;;;;4952661;29;20050;-76
2022/10/26 01:00:02;;;;;;;6.25;3.80;;;11.20;99.90;;;;;;4954677;29;20047;-76
2022/10/26 01:02:29;;;;;;;10.50;4.30;;;11.20;99.90;;;;;;4953748;29;20042;-76
2022/10/26 01:04:55;;;;;;;8.93;4.35;;;11.20;99.90;;;;;;4954571;29;20031;-75
2022/10/26 01:07:22;;;;;;;7.75;4.45;;;11.20;99.90;;;;;;4952378;29;20046;-75
2022/10/26 01:09:48;;;;;;;12.20;4.45;;;11.20;99.90;;;;;;4954277;29;20054;-75
2022/10/26 01:12:14;;;;;;;10.05;4.20;;;11.30;99.90;;;;;;4955112;29;20035;-76
2022/10/26 01:14:40;;;;;;;7.28;4.35;;;11.20;99.90;;;;;;4957199;29;20027;-75
2022/10/26 01:17:25;;;;;;;15.15;5.20;;;11.20;99.90;;;;;;4953998;29;20043;-76
2022/10/26 01:20:05;;;;;;;12.63;5.65;;;11.20;99.90;;;;;;4957080;29;20473;-76
2022/10/26 01:22:55;;;;;;;9.73;5.10;;;11.20;99.90;;;;;;4957152;29;20035;-77
2022/10/26 01:25:49;;;;;;;9.30;5.03;;;11.20;99.90;;;;;;4956659;29;20031;-76
2022/10/26 01:28:34;;;;;;;12.90;5.22;;;11.20;99.90;;;;;;4957081;29;20495;-76
2022/10/26 01:31:03;;;;;;;10.57;6.00;;;11.20;99.90;;;;;;4939108;29;20039;-76
2022/10/26 01:33:39;;;;;;;11.38;5.97;;;11.20;99.90;;;;;;4960048;29;20461;-76
2022/10/26 01:36:11;;;;;;;12.57;5.82;;;11.20;99.90;;;;;;4962594;29;20043;-76
2022/10/26 01:38:53;;;;;;;11.45;6.35;;;11.20;99.90;;;;;;4956268;29;20377;-76
2022/10/26 01:41:27;;;;;;;11.40;5.53;;;11.20;99.90;;;;;;4953432;29;20042;-76
2022/10/26 01:44:22;;;;;;;10.07;5.28;;;11.20;99.90;;;;;;4958345;29;20118;-76
2022/10/26 01:46:50;;;;;;;11.43;4.32;;;11.20;99.90;;;;;;4942169;28;20068;-76
2022/10/26 01:49:21;;;;;;;11.20;5.30;;;11.10;99.90;;;;;;4953783;29;20043;-76
2022/10/26 01:51:49;;;;;;;10.27;5.53;;;11.20;99.90;;;;;;4954608;29;20046;-76
2022/10/26 01:54:15;;;;;;;10.68;5.10;;;11.20;99.90;;;;;;4953818;29;20515;-76
2022/10/26 01:56:46;;;;;;;13.32;5.22;;;11.20;99.90;;;;;;4952196;29;20039;-76
2022/10/26 01:59:16;;;;;;;10.85;6.60;;;11.30;99.90;;;;;;4953887;29;20050;-76
2022/10/26 02:01:52;;;;;;;20.40;6.72;;;11.30;99.90;;;;;;4954139;29;20047;-76
2022/10/26 02:04:33;;;;;;;10.38;5.43;;;11.30;99.90;;;;;;4954301;29;20027;-76
2022/10/26 02:07:27;;;;;;;9.88;6.18;;;11.30;99.90;;;;;;4954062;29;20401;-77
2022/10/26 02:10:06;;;;;;;10.05;5.35;;;11.30;99.90;;;;;;4957493;29;20030;-75
2022/10/26 02:12:52;;;;;;;12.48;5.15;;;11.30;99.90;;;;;;4956456;29;20532;-75
2022/10/26 02:15:33;;;;;;;9.98;5.30;;;11.30;99.90;;;;;;4938763;29;20048;-76
2022/10/26 02:18:33;;;;;;;10.07;5.47;;;11.30;99.90;;;;;;4956263;29;20039;-75
2022/10/26 02:21:05;;;;;;;9.93;4.60;;;11.30;99.90;;;;;;4955502;29;20050;-75
2022/10/26 02:23:34;;;;;;;13.45;6.47;;;11.30;99.90;;;;;;4958198;29;20062;-76
2022/10/26 02:26:03;;;;;;;9.40;4.82;;;11.30;99.90;;;;;;4951944;29;20060;-76
2022/10/26 02:28:41;;;;;;;8.18;5.97;;;11.40;99.90;;;;;;4952544;29;20047;-76
2022/10/26 02:31:09;;;;;;;14.38;7.78;;;11.40;99.90;;;;;;4954178;29;20433;-76
2022/10/26 02:33:40;;;;;;;10.40;5.68;;;11.40;99.90;;;;;;4953765;29;20027;-76
2022/10/26 02:36:11;;;;;;;15.13;6.32;;;11.40;99.90;;;;;;4953422;29;20035;-76
2022/10/26 02:38:41;;;;;;;7.70;5.68;;;11.30;99.90;;;;;;4953743;29;20062;-76
2022/10/26 02:41:09;;;;;;;12.85;6.53;;;11.40;99.90;;;;;;4953427;29;20039;-75
2022/10/26 02:43:43;;;;;;;9.82;5.88;;;11.40;99.90;;;;;;4955827;28;20062;-76
2022/10/26 02:46:15;;;;;;;10.05;7.03;;;11.40;99.90;;;;;;4952822;29;20039;-77
2022/10/26 02:48:42;;;;;;;11.57;5.85;;;11.40;99.90;;;;;;4956424;29;20050;-77
2022/10/26 02:51:29;;;;;;;11.35;6.63;;;11.40;99.90;;;;;;4957604;29;20070;-77
2022/10/26 02:54:12;;;;;;;10.52;6.47;;;11.30;99.90;;;;;;4937530;29;20040;-77
2022/10/26 02:56:58;;;;;;;12.50;6.18;;;11.30;99.90;;;;;;4941282;29;20043;-77
2022/10/26 02:59:30;;;;;;;11.93;6.47;;;11.40;99.90;;;;;;4957584;29;20050;-75
2022/10/26 03:01:57;;;;;;;9.02;6.13;;;11.40;99.90;;;;;;4955528;29;20043;-75
2022/10/26 03:04:30;;;;;;;13.23;7.15;;;11.40;99.90;;;;;;4956452;29;20039;-77
2022/10/26 03:06:57;;;;;;;13.57;7.13;;;11.30;99.90;;;;;;4954825;28;20051;-76
2022/10/26 03:09:24;;;;;;;9.98;6.15;;;11.40;99.90;;;;;;4958510;29;20038;-77
2022/10/26 03:11:51;;;;;;;13.85;7.00;;;11.40;99.90;;;;;;4959013;29;20461;-77
2022/10/26 03:14:17;;;;;;;9.88;7.32;;;11.40;99.90;;;;;;4956966;29;20031;-77
2022/10/26 03:16:43;;;;;;;11.95;7.47;;;11.50;99.90;;;;;;4956443;29;20039;-77
2022/10/26 03:19:10;;;;;;;13.52;8.10;;;11.50;99.90;;;;;;4957342;29;20032;-77
2022/10/26 03:21:36;;;;;;;13.05;7.88;;;11.60;99.90;;;;;;4958421;29;20058;-77
2022/10/26 03:24:02;;;;;;;13.02;7.55;;;11.60;99.90;;;;;;4958865;29;20046;-77
2022/10/26 03:26:28;;;;;;;12.02;7.40;;;11.60;99.90;;;;;;4958186;29;20062;-77
2022/10/26 03:28:55;;;;;;;11.43;7.53;;;11.60;99.90;;;;;;4960331;29;20404;-77
2022/10/26 03:31:21;;;;;;;15.30;7.60;;;11.60;99.90;;;;;;4960995;29;20038;-77
2022/10/26 03:33:47;;;;;;;12.05;7.57;;;11.70;99.90;;;;;;4950037;29;20047;-77
2022/10/26 03:36:13;;;;;;;18.55;8.35;;;11.70;99.90;;;;;;4955435;29;20040;-77
2022/10/26 03:38:39;;;;;;;12.30;6.72;;;11.70;99.90;;;;;;4955618;29;20046;-77
2022/10/26 03:41:05;;;;;;;20.88;7.45;;;11.70;99.90;;;;;;4955976;29;20065;-77
2022/10/26 03:43:31;;;;;;;14.18;7.05;;;11.70;99.90;;;;;;4955280;29;20039;-77
2022/10/26 03:45:57;;;;;;;11.45;6.93;;;11.70;99.90;;;;;;4954441;29;20035;-77
2022/10/26 03:48:24;;;;;;;11.55;6.57;;;11.70;99.90;;;;;;4954636;29;20062;-77
2022/10/26 03:50:50;;;;;;;15.57;7.60;;;11.60;99.90;;;;;;4955523;29;20048;-77
2022/10/26 03:53:16;;;;;;;15.98;8.02;;;11.60;99.90;;;;;;4953517;29;20035;-77
2022/10/26 03:55:43;;;;;;;11.80;6.63;;;11.60;99.90;;;;;;4950563;29;20034;-77
2022/10/26 03:58:09;;;;;;;13.25;6.90;;;11.60;99.90;;;;;;4955032;29;20469;-76
2022/10/26 04:00:36;;;;;;;15.32;6.75;;;11.50;99.90;;;;;;4954878;29;20148;-77
2022/10/26 04:03:02;;;;;;;12.38;6.65;;;11.50;99.90;;;;;;4944081;29;20047;-77
2022/10/26 04:05:28;;;;;;;16.70;7.15;;;11.50;99.90;;;;;;4952196;29;20043;-77
2022/10/26 04:07:56;;;;;;;14.13;7.80;;;11.50;99.90;;;;;;4953093;29;20142;-77
2022/10/26 04:10:24;;;;;;;14.98;7.35;;;11.50;99.90;;;;;;4955408;29;20039;-76
2022/10/26 04:12:51;;;;;;;13.48;6.82;;;11.30;99.90;;;;;;4955480;29;20027;-77
2022/10/26 04:15:19;;;;;;;11.07;6.47;;;11.30;99.90;;;;;;4955493;29;20035;-77
2022/10/26 04:17:46;;;;;;;14.02;6.28;;;11.20;99.90;;;;;;4953565;29;20238;-77
2022/10/26 04:20:12;;;;;;;9.85;6.50;;;11.20;99.90;;;;;;4952962;28;20051;-77
2022/10/26 04:22:38;;;;;;;14.18;7.00;;;11.20;99.90;;;;;;4953433;29;20035;-77
2022/10/26 04:25:06;;;;;;;14.07;7.57;;;11.10;99.90;;;;;;4955132;29;20039;-77
2022/10/26 04:27:32;;;;;;;13.57;7.40;;;11.20;99.90;;;;;;4952933;29;20121;-78
2022/10/26 04:29:59;;;;;;;17.15;6.68;;;11.20;99.90;;;;;;4953850;29;20054;-77
2022/10/26 04:32:25;;;;;;;25.40;8.30;;;11.20;99.90;;;;;;4955038;29;20331;-78
2022/10/26 04:34:53;;;;;;;21.13;11.32;;;11.10;99.90;;;;;;4955135;29;20037;-78
2022/10/26 04:37:19;;;;;;;26.02;14.93;;;11.00;99.90;;;;;;4952266;29;20035;-78
2022/10/26 04:39:46;;;;;;;34.63;18.02;;;11.00;99.90;;;;;;4954772;29;20489;-77
2022/10/26 04:42:12;;;;;;;20.77;13.55;;;10.90;99.90;;;;;;4954507;29;20039;-78
2022/10/26 04:44:38;;;;;;;16.73;8.95;;;10.90;99.90;;;;;;4940281;29;20080;-78
2022/10/26 04:47:04;;;;;;;13.52;8.55;;;10.80;99.90;;;;;;4933256;29;20044;-86
2022/10/26 04:49:30;;;;;;;16.55;7.85;;;10.90;99.90;;;;;;4949387;29;20044;-85
2022/10/26 04:51:56;;;;;;;14.38;7.28;;;10.80;99.90;;;;;;4951283;29;20035;-85
2022/10/26 04:54:22;;;;;;;10.70;6.60;;;10.80;99.90;;;;;;4946584;29;20043;-84
2022/10/26 04:56:50;;;;;;;12.10;6.30;;;10.90;99.90;;;;;;4951228;28;20465;-86
2022/10/26 04:59:16;;;;;;;11.98;6.93;;;10.90;99.90;;;;;;4953188;29;20051;-87
2022/10/26 05:01:42;;;;;;;11.43;6.45;;;11.00;99.90;;;;;;4953685;29;20388;-87
2022/10/26 05:04:08;;;;;;;14.77;8.00;;;10.90;99.90;;;;;;4953370;29;20043;-85
2022/10/26 05:06:35;;;;;;;16.40;6.22;;;11.00;99.90;;;;;;4941568;29;20051;-86
2022/10/26 05:09:01;;;;;;;13.88;7.13;;;11.00;99.90;;;;;;4954497;29;20042;-84
2022/10/26 05:11:27;;;;;;;14.68;6.72;;;11.00;99.90;;;;;;4950253;29;20043;-85
2022/10/26 05:13:54;;;;;;;11.60;6.78;;;11.00;99.90;;;;;;4951210;29;20464;-85
2022/10/26 05:16:20;;;;;;;12.23;7.20;;;11.00;99.90;;;;;;4957863;28;20066;-85
2022/10/26 05:18:49;;;;;;;19.55;7.43;;;11.00;99.90;;;;;;4950566;29;20038;-86
2022/10/26 05:21:19;;;;;;;13.07;6.68;;;10.90;99.90;;;;;;4950232;29;20404;-86
2022/10/26 05:23:51;;;;;;;14.43;6.50;;;10.90;99.90;;;;;;4947964;29;20035;-85
2022/10/26 05:26:17;;;;;;;11.40;5.38;;;10.90;99.90;;;;;;4952445;29;20039;-89
2022/10/26 05:28:43;;;;;;;11.57;6.22;;;11.00;99.90;;;;;;4954722;29;20046;-84
2022/10/26 05:31:09;;;;;;;9.68;6.25;;;11.00;99.90;;;;;;4954845;28;20031;-86
2022/10/26 05:33:35;;;;;;;12.20;7.03;;;11.10;99.90;;;;;;4946485;29;20047;-86
2022/10/26 05:36:02;;;;;;;12.52;6.82;;;11.10;99.90;;;;;;4953536;29;20030;-86
2022/10/26 05:38:28;;;;;;;13.55;6.32;;;11.20;99.90;;;;;;4957438;29;20054;-83
2022/10/26 05:40:54;;;;;;;15.38;6.60;;;11.20;99.90;;;;;;4950573;29;20043;-86
2022/10/26 05:43:22;;;;;;;15.85;7.68;;;11.20;99.90;;;;;;4950215;29;20047;-87
2022/10/26 05:45:50;;;;;;;16.65;9.20;;;11.30;99.90;;;;;;4949340;29;20233;-87
2022/10/26 05:48:16;;;;;;;27.60;9.27;;;11.30;99.90;;;;;;4952814;29;20054;-88
2022/10/26 05:50:43;;;;;;;16.52;7.63;;;11.40;99.90;;;;;;4951985;29;20047;-87
2022/10/26 05:53:09;;;;;;;16.88;7.80;;;11.50;99.90;;;;;;4956735;29;20042;-87
2022/10/26 05:55:35;;;;;;;11.57;6.85;;;11.50;99.90;;;;;;4961492;28;20047;-87
2022/10/26 05:58:02;;;;;;;10.40;5.93;;;11.60;99.90;;;;;;4956427;29;20035;-87
2022/10/26 06:00:29;;;;;;;11.40;6.32;;;11.60;99.90;;;;;;4950911;29;20035;-87
2022/10/26 06:03:24;;;;;;;11.60;5.97;;;11.70;99.90;;;;;;4938601;29;20059;-88
2022/10/26 06:05:56;;;;;;;9.60;6.53;;;11.80;99.90;;;;;;4948172;29;20038;-88
2022/10/26 06:08:25;;;;;;;14.02;6.43;;;11.90;99.90;;;;;;4955349;29;20043;-88
2022/10/26 06:10:53;;;;;;;16.95;7.40;;;12.00;99.90;;;;;;4952812;29;20539;-89
2022/10/26 06:13:20;;;;;;;8.90;5.32;;;12.10;99.90;;;;;;4937964;29;20047;-88
2022/10/26 06:16:25;;;;;;;10.20;4.47;;;12.20;99.90;;;;;;4951293;29;20054;-89
2022/10/26 06:19:13;;;;;;;8.45;4.13;;;12.20;99.90;;;;;;4953814;29;20079;-88
2022/10/26 06:21:39;;;;;;;8.70;3.65;;;12.30;99.90;;;;;;4954401;29;20120;-85
2022/10/26 06:24:25;;;;;;;5.10;2.80;;;12.40;99.90;;;;;;4954694;29;20032;-87
2022/10/26 06:27:21;;;;;;;6.57;2.70;;;12.60;99.90;;;;;;4951614;29;20473;-88
2022/10/26 06:30:04;;;;;;;7.20;2.45;;;12.80;99.90;;;;;;4942665;29;20393;-87
2022/10/26 06:32:31;;;;;;;5.72;2.38;;;12.90;99.90;;;;;;4963007;29;20043;-85
2022/10/26 06:35:19;;;;;;;7.13;2.38;;;13.00;99.90;;;;;;4962073;29;20054;-86
2022/10/26 06:37:45;;;;;;;7.75;2.42;;;13.00;99.90;;;;;;4958054;29;20039;-87
2022/10/26 06:40:14;;;;;;;5.55;1.88;;;13.10;99.90;;;;;;4955051;29;20054;-87
2022/10/26 06:42:41;;;;;;;4.25;1.70;;;13.20;99.90;;;;;;4954007;28;20482;-86
2022/10/26 06:45:14;;;;;;;4.43;1.58;;;13.30;99.90;;;;;;4957240;29;20050;-86
2022/10/26 06:48:06;;;;;;;5.78;2.80;;;13.40;99.90;;;;;;4956969;29;20050;-86
2022/10/26 06:50:38;;;;;;;3.88;2.05;;;13.50;99.90;;;;;;4956886;29;20066;-87
2022/10/26 06:53:36;;;;;;;4.68;2.00;;;13.50;99.90;;;;;;4957098;29;20043;-88
2022/10/26 06:56:02;;;;;;;4.18;2.17;;;13.50;99.90;;;;;;4956065;29;20043;-86
2022/10/26 06:58:33;;;;;;;3.25;1.90;;;13.60;99.90;;;;;;4957154;29;20046;-86
2022/10/26 07:00:59;;;;;;;;;;;13.60;99.90;;;;;;4957420;28;20047;-87
2022/10/26 07:03:25;;;;;;;5.20;1.80;;;13.60;99.90;;;;;;4973226;28;19910;-86
2022/10/26 07:05:52;;;;;;;4.88;2.20;;;13.70;99.90;;;;;;4955954;29;20058;-86
2022/10/26 07:08:18;;;;;;;6.60;2.22;;;13.70;99.90;;;;;;4956572;28;20035;-86
2022/10/26 07:10:45;;;;;;;3.50;1.90;;;13.80;99.90;;;;;;4957322;29;20031;-87
2022/10/26 07:13:12;;;;;;;5.03;2.30;;;13.80;99.90;;;;;;4945354;29;20054;-86
2022/10/26 07:15:40;;;;;;;7.18;2.47;;;13.80;99.90;;;;;;4949189;29;20050;-87
2022/10/26 07:18:07;;;;;;;6.38;2.55;;;13.80;99.90;;;;;;4969925;28;20054;-87
2022/10/26 07:20:38;;;;;;;7.18;2.30;;;13.80;99.90;;;;;;4939589;29;20047;-86
2022/10/26 07:23:05;;;;;;;6.05;2.00;;;13.80;99.90;;;;;;4957379;29;20039;-88
2022/10/26 07:25:33;;;;;;;9.15;2.50;;;13.80;99.90;;;;;;4955586;29;20035;-84
2022/10/26 07:28:00;;;;;;;4.78;1.98;;;13.80;99.90;;;;;;4955833;29;20035;-87
2022/10/26 07:30:27;;;;;;;4.78;2.15;;;13.90;99.90;;;;;;4956933;29;20031;-84
2022/10/26 07:33:04;;;;;;;5.38;1.85;;;14.00;99.90;;;;;;4952654;29;20038;-87
2022/10/26 07:35:32;;;;;;;5.60;2.78;;;14.00;99.90;;;;;;4937886;29;20058;-87
2022/10/26 07:37:59;;;;;;;3.55;1.98;;;14.10;99.90;;;;;;4950299;29;20406;-87
2022/10/26 07:40:26;;;;;;;4.32;1.77;;;14.10;99.90;;;;;;4953862;29;20031;-87
2022/10/26 07:42:54;;;;;;;5.82;2.30;;;14.10;99.90;;;;;;4960583;29;20036;-87
2022/10/26 07:45:21;;;;;;;11.27;2.80;;;14.00;99.90;;;;;;4954675;29;20477;-86
2022/10/26 07:47:48;;;;;;;13.50;2.50;;;14.00;99.90;;;;;;4949141;29;20035;-87
2022/10/26 07:50:15;;;;;;;4.93;1.85;;;14.00;99.90;;;;;;4953875;29;20039;-89
2022/10/26 07:52:41;;;;;;;7.72;2.58;;;14.00;99.90;;;;;;4950044;29;20043;-89
2022/10/26 07:55:11;;;;;;;9.18;2.97;;;14.00;99.90;;;;;;4951649;28;20031;-86
2022/10/26 07:57:38;;;;;;;5.35;2.33;;;14.00;99.90;;;;;;4952205;29;20050;-89
2022/10/26 08:00:07;;;;;;;4.18;1.98;;;14.10;99.90;;;;;;4955352;29;20373;-89
2022/10/26 08:02:33;;;;;;;3.95;2.00;;;14.10;99.90;;;;;;4948327;29;20036;-88
2022/10/26 08:05:00;;;;;;;7.07;2.92;;;14.10;99.90;;;;;;4953419;29;20381;-86
2022/10/26 08:07:26;;;;;;;5.25;2.05;;;14.10;99.90;;;;;;4949832;29;20047;-87
2022/10/26 08:09:52;;;;;;;4.57;2.20;;;14.10;99.90;;;;;;4953118;29;20036;-87
2022/10/26 08:12:19;;;;;;;5.38;2.10;;;14.10;99.90;;;;;;4949814;29;20043;-88
2022/10/26 08:14:45;;;;;;;6.10;2.20;;;14.10;99.90;;;;;;4950784;29;20030;-86
2022/10/26 08:17:11;;;;;;;5.60;1.80;;;14.10;99.90;;;;;;4947121;29;20039;-84
2022/10/26 08:19:37;;;;;;;3.35;1.27;;;14.10;99.90;;;;;;4955169;29;20054;-83
2022/10/26 08:22:05;;;;;;;4.13;1.63;;;14.20;99.90;;;;;;4949101;29;20035;-83
2022/10/26 08:24:31;;;;;;;5.93;2.40;;;14.20;99.90;;;;;;4955294;29;20042;-85
2022/10/26 08:26:57;;;;;;;5.43;1.52;;;14.30;99.90;;;;;;4953733;29;20032;-84
2022/10/26 08:29:23;;;;;;;7.68;2.22;;;14.40;99.90;;;;;;4954166;29;20039;-84
2022/10/26 08:31:49;;;;;;;5.55;2.05;;;14.50;99.90;;;;;;4955178;29;20031;-81
2022/10/26 08:34:16;;;;;;;7.78;3.25;;;14.70;99.90;;;;;;4953987;29;20039;-81
2022/10/26 08:36:42;;;;;;;4.15;2.20;;;14.80;99.90;;;;;;4952919;29;20047;-82
2022/10/26 08:39:08;;;;;;;6.07;2.35;;;14.90;99.90;;;;;;4952289;29;20462;-82
2022/10/26 08:41:36;;;;;;;2.15;1.50;;;15.00;99.90;;;;;;4954057;29;20126;-81
2022/10/26 08:44:20;;;;;;;7.55;2.25;;;15.00;99.90;;;;;;4955540;29;20043;-85
2022/10/26 08:46:53;;;;;;;5.03;2.22;;;15.10;99.90;;;;;;4951357;29;20377;-84
2022/10/26 08:49:27;;;;;;;4.85;2.00;;;15.20;99.90;;;;;;4954687;29;20031;-85
2022/10/26 08:51:58;;;;;;;5.30;2.55;;;15.40;99.90;;;;;;4948736;29;20031;-81
2022/10/26 08:54:34;;;;;;;6.85;2.28;;;15.50;99.90;;;;;;4954160;29;20392;-87
2022/10/26 08:57:24;;;;;;;5.07;1.60;;;15.60;99.90;;;;;;4952361;29;20043;-86
2022/10/26 09:00:18;;;;;;;8.10;2.20;;;15.70;99.90;;;;;;4953981;29;20059;-85
2022/10/26 09:02:49;;;;;;;3.42;1.80;;;15.80;99.90;;;;;;4948790;29;20050;-84
2022/10/26 09:05:21;;;;;;;5.15;1.92;;;16.00;99.90;;;;;;4952175;28;20434;-86
2022/10/26 09:08:10;;;;;;;7.20;2.00;;;16.20;99.90;;;;;;4954244;29;20400;-84
2022/10/26 09:11:04;;;;;;;6.30;1.80;;;16.40;99.90;;;;;;4955065;29;20038;-85
2022/10/26 09:13:45;;;;;;;8.77;2.20;;;17.00;99.90;;;;;;4953664;29;20031;-85
2022/10/26 09:16:23;;;;;;;7.05;2.33;;;17.30;99.90;;;;;;4930021;29;20051;-85
2022/10/26 09:19:07;;;;;;;2.63;1.38;;;17.40;99.90;;;;;;4951040;29;20511;-86
2022/10/26 09:21:54;;;;;;;3.97;1.70;;;17.40;99.90;;;;;;4952754;29;20445;-85
2022/10/26 09:24:37;;;;;;;5.82;2.03;;;17.30;99.90;;;;;;4948998;29;20047;-86
2022/10/26 09:27:15;;;;;;;5.00;1.98;;;17.20;99.90;;;;;;4952813;29;20046;-84
2022/10/26 09:29:42;;;;;;;4.07;1.80;;;17.30;99.90;;;;;;4954397;29;20043;-84
2022/10/26 09:32:16;;;;;;;4.45;1.90;;;17.50;99.90;;;;;;4953814;29;20039;-86
2022/10/26 09:34:52;;;;;;;5.30;1.83;;;17.60;99.90;;;;;;4949552;29;20039;-85
2022/10/26 09:37:45;;;;;;;2.47;1.40;;;17.70;99.90;;;;;;4946076;29;20039;-84
2022/10/26 09:40:20;;;;;;;6.45;2.30;;;17.60;99.90;;;;;;4955697;29;20050;-84
2022/10/26 09:42:58;;;;;;;4.47;1.70;;;17.90;99.90;;;;;;4954305;29;20035;-83
2022/10/26 09:45:30;;;;;;;4.63;1.80;;;18.20;99.90;;;;;;4955422;29;20042;-85
2022/10/26 09:48:03;;;;;;;7.25;2.42;;;18.10;99.90;;;;;;4944678;29;20397;-85
2022/10/26 09:50:38;;;;;;;3.20;1.42;;;18.50;99.90;;;;;;4954962;29;20051;-85
2022/10/26 09:53:04;;;;;;;4.80;1.63;;;18.50;99.90;;;;;;4953531;29;20362;-87
2022/10/26 09:55:31;;;;;;;3.63;1.65;;;18.60;99.90;;;;;;4947162;29;20158;-85
2022/10/26 09:58:02;;;;;;;3.70;1.70;;;18.70;99.90;;;;;;4952226;29;20043;-86
2022/10/26 10:00:30;;;;;;;6.57;1.70;;;18.80;99.90;;;;;;4952041;29;20040;-88
2022/10/26 10:02:57;;;;;;;4.55;1.40;;;18.70;99.90;;;;;;4957511;29;20031;-84
2022/10/26 10:05:34;;;;;;;5.80;1.92;;;18.60;99.90;;;;;;4957754;29;20668;-85
2022/10/26 10:08:13;;;;;;;5.53;1.70;;;18.50;99.90;;;;;;4958270;29;20424;-85
2022/10/26 10:10:52;;;;;;;5.05;1.98;;;18.40;99.90;;;;;;4956291;29;20038;-85
2022/10/26 10:13:20;;;;;;;4.18;2.15;;;18.50;99.90;;;;;;4948542;29;20051;-86
2022/10/26 10:15:52;;;;;;;6.88;1.77;;;18.50;99.90;;;;;;4954938;29;20441;-85
2022/10/26 10:18:21;;;;;;;4.53;1.63;;;18.50;99.90;;;;;;4942773;29;20062;-85
2022/10/26 10:20:56;;;;;;;4.10;2.10;;;18.60;99.90;;;;;;4962256;29;20039;-85
2022/10/26 10:23:46;;;;;;;7.18;2.28;;;18.80;99.90;;;;;;4962213;29;20054;-85
2022/10/26 10:26:12;;;;;;;3.90;1.52;;;18.90;99.90;;;;;;4961227;29;20039;-86
2022/10/26 10:28:42;;;;;;;3.88;2.05;;;18.60;99.90;;;;;;4962801;29;20027;-79
2022/10/26 10:31:20;;;;;;;4.60;1.90;;;18.60;99.90;;;;;;4958988;29;20038;-84
2022/10/26 10:33:48;;;;;;;4.05;1.70;;;18.60;99.90;;;;;;4955048;29;20050;-85
2022/10/26 10:36:34;;;;;;;3.80;2.13;;;18.60;99.90;;;;;;4956783;29;20039;-85
2022/10/26 10:39:01;;;;;;;6.55;2.10;;;18.60;99.90;;;;;;4955619;28;20050;-84
2022/10/26 10:41:31;;;;;;;6.65;2.50;;;18.70;99.90;;;;;;4957017;29;20047;-84
2022/10/26 10:44:26;;;;;;;3.50;1.80;;;18.80;99.90;;;;;;4957270;29;20037;-83
2022/10/26 10:47:03;;;;;;;5.28;2.00;;;18.90;99.90;;;;;;4954285;29;20035;-84
2022/10/26 10:49:31;;;;;;;6.28;2.20;;;18.90;99.90;;;;;;4956752;28;20074;-84
2022/10/26 10:51:58;;;;;;;4.05;1.65;;;18.90;99.90;;;;;;4957488;29;20468;-86
2022/10/26 10:54:26;;;;;;;6.13;1.77;;;18.90;99.90;;;;;;4953557;29;20031;-84
2022/10/26 10:56:59;;;;;;;3.67;1.60;;;19.00;99.90;;;;;;4954920;29;20070;-84
2022/10/26 10:59:38;;;;;;;5.55;1.42;;;19.10;99.90;;;;;;4953774;29;20047;-84
2022/10/26 11:03:00;;;;;;;3.80;1.83;;;19.30;99.90;;;;;;4946769;29;20043;-85
2022/10/26 11:05:48;;;;;;;7.43;2.50;;;19.30;99.90;;;;;;4930336;29;20051;-87
2022/10/26 11:08:55;;;;;;;7.28;2.22;;;19.40;99.90;;;;;;4956681;29;20042;-84
2022/10/26 11:11:34;;;;;;;3.55;1.95;;;19.60;99.90;;;;;;4859949;29;20438;-84
2022/10/26 11:14:14;;;;;;;4.50;1.70;;;19.80;99.90;;;;;;4860843;29;20048;-84
2022/10/26 11:16:44;;;;;;;4.70;1.95;;;19.80;99.90;;;;;;4858639;29;20053;-84
2022/10/26 11:19:16;;;;;;;;;;;19.90;99.90;;;;;;4860994;29;20045;-84
2022/10/26 11:21:47;;;;;;;4.82;1.25;;;19.70;99.90;;;;;;4860312;29;19912;-84
2022/10/26 11:24:25;;;;;;;5.55;1.70;;;19.60;99.90;;;;;;4844147;29;20049;-84
2022/10/26 11:27:00;;;;;;;6.20;1.65;;;19.60;99.90;;;;;;4858013;29;20041;-84
2022/10/26 11:29:32;;;;;;;4.65;1.70;;;19.60;99.90;;;;;;4844417;29;20524;-83
2022/10/26 11:32:06;;;;;;;5.43;1.45;;;19.90;99.90;;;;;;4844202;29;20057;-83
2022/10/26 11:34:41;;;;;;;5.93;1.77;;;20.00;99.90;;;;;;4858063;29;20053;-83
2022/10/26 11:37:09;;;;;;;5.18;2.33;;;20.10;99.90;;;;;;4858721;29;20033;-84
2022/10/26 11:39:44;;;;;;;4.47;1.75;;;20.20;99.90;;;;;;4853426;29;20542;-83
2022/10/26 11:42:46;;;;;;;3.80;1.60;;;20.10;99.90;;;;;;4910328;29;20047;-84
2022/10/26 11:45:29;;;;;;;4.68;1.45;;;20.00;99.90;;;;;;4953331;29;20464;-83
2022/10/26 11:48:23;;;;;;;4.07;1.65;;;20.00;99.90;;;;;;4956039;29;20491;-87
2022/10/26 11:50:53;;;;;;;9.32;1.85;;;19.90;99.90;;;;;;4952409;29;20055;-83
2022/10/26 11:53:46;;;;;;;4.97;1.65;;;20.00;99.90;;;;;;4954911;29;20058;-84
2022/10/26 11:56:24;;;;;;;4.32;1.88;;;20.00;99.90;;;;;;4952737;29;20527;-84
2022/10/26 11:58:50;;;;;;;4.82;1.85;;;20.00;99.90;;;;;;4955657;29;20511;-84
2022/10/26 12:01:17;;;;;;;4.35;1.98;;;20.00;99.90;;;;;;4954801;29;20047;-84
2022/10/26 12:03:48;;;;;;;6.90;1.52;;;20.00;99.90;;;;;;4957333;29;20042;-83
2022/10/26 12:06:19;;;;;;;6.60;2.00;;;20.00;99.90;;;;;;4956213;29;20477;-83
2022/10/26 12:09:11;;;;;;;6.25;2.17;;;20.10;99.90;;;;;;4955080;29;20046;-85
2022/10/26 12:11:42;;;;;;;5.38;1.73;;;20.20;99.90;;;;;;4950907;29;20062;-83
2022/10/26 12:14:35;;;;;;;5.78;1.95;;;20.20;99.90;;;;;;4954329;29;20389;-84
2022/10/26 12:17:25;;;;;;;5.10;1.45;;;20.20;99.90;;;;;;4939006;29;20039;-83
2022/10/26 12:20:25;;;;;;;6.72;1.70;;;20.30;99.90;;;;;;4957127;29;20137;-83
2022/10/26 12:22:52;;;;;;;4.35;1.75;;;20.30;99.90;;;;;;4951281;29;20031;-84
2022/10/26 12:25:20;;;;;;;5.20;1.65;;;20.30;99.90;;;;;;4946635;29;20038;-83
2022/10/26 12:27:46;;;;;;;6.57;1.40;;;20.50;99.90;;;;;;4954920;29;20039;-84
2022/10/26 12:30:12;;;;;;;4.82;1.67;;;20.60;99.90;;;;;;4954374;29;20512;-84
2022/10/26 12:32:48;;;;;;;4.65;1.75;;;20.80;98.60;;;;;;4954338;29;20488;-84
2022/10/26 12:35:33;;;;;;;6.00;1.35;;;20.80;99.20;;;;;;4952869;29;20142;-84
2022/10/26 12:38:01;;;;;;;5.53;2.08;;;20.90;97.50;;;;;;4954964;29;20042;-85
2022/10/26 12:40:33;;;;;;;4.40;1.63;;;21.00;98.50;;;;;;4953148;28;20492;-84
2022/10/26 12:43:14;;;;;;;5.75;1.10;;;21.00;96.20;;;;;;4955141;29;20062;-84
2022/10/26 12:45:42;;;;;;;5.05;1.55;;;20.90;96.80;;;;;;4952904;29;20027;-83
2022/10/26 12:48:52;;;;;;;6.40;1.65;;;20.90;96.80;;;;;;4953509;29;20036;-84
2022/10/26 12:51:21;;;;;;;4.95;1.48;;;20.80;96.80;;;;;;4941841;29;20047;-85
2022/10/26 12:53:56;;;;;;;9.00;1.65;;;20.80;96.50;;;;;;4953690;29;20397;-85
2022/10/26 12:57:08;;;;;;;4.32;1.70;;;20.70;97.90;;;;;;4952685;29;20055;-84
2022/10/26 13:00:00;;;;;;;3.83;1.67;;;20.70;97.00;;;;;;4953481;29;20050;-84
2022/10/26 13:02:45;;;;;;;2.67;1.33;;;20.80;97.90;;;;;;5062798;28;20390;-83
2022/10/26 13:05:29;;;;;;;6.57;1.77;;;20.70;96.40;;;;;;5068110;28;20045;-84
2022/10/26 13:08:21;;;;;;;3.88;0.98;;;20.70;96.40;;;;;;5067447;28;20429;-84
2022/10/26 13:11:12;;;;;;;4.63;1.38;;;20.70;96.50;;;;;;5067423;28;20055;-84